Terminal Aerodrome Forecast
Issued by NWS

Home | Current Version | Previous Version | Text Only | Print | Product List | Glossary On
Versions: 1 2 3 4 5 6 7 8 9 10 11 12 13 14 15 16 17 18 19 20 21 22 23 24 25 26
000
FTUS45 KTWC 240500
TAFOLS
TAF
KOLS 240520Z 2406/2506 10006KT P6SM SCT100 BKN200
     FM241000 VRB04KT P6SM FEW120 SCT200
     FM242100 12006KT P6SM VCSH SCT100 BKN150
     FM250300 VRB06KT P6SM SCT110 SCT250=

USA.gov is the U.S. government's official web portal to all federal, state and local government web resources and services.